Carlsbad, California
Current Conditions -  °F | °C
As of 10:52 AM on Tuesday 21 Oct 2014 (Local Time) from KOKB Reporting Station
Clear Clear  
Wind Chill: 74°   Ceiling: Unl
Heat Index: 74°   Visibility: 9mi
Dew Point: 60°   Wind: 3mph
Humidity: 62%   Direction: NA
Pressure: 29.9"   Gusts: NA
Location:  33.17°N, 117.33°W
Report Text: KOKB 211752Z AUTO VRB03KT 9SM CLR 23/16 A2990 RMK AO2 SLP125 T02330156 10233 20194 50001
Loading
Personal Weather Stations






























Interactive Weather Map New forecast layout! Learn more

10-Day Weather Forecast

Advertisements
Track Severe Weather on mobile